Time;durP1;ratioP1;P1;durP2;ratioP2;P2;SDS_P1;SDS_P2;PMS_P1;PMS_P2;Temp;Humidity;BMP_temperature;BMP_pressure;BME280_temperature;BME280_humidity;BME280_pressure;Samples;Min_cycle;Max_cycle;Signal;HPM_P1;HPM_P2
2023/08/20 00:00:35;;;;;;;16.62;9.50;;;;;;;23.58;68.59;100694.41;1718323;83;21106;-61
2023/08/20 00:03:12;;;;;;;15.88;9.98;;;;;;;23.57;68.76;100700.28;1718323;83;21063;-61
2023/08/20 00:05:42;;;;;;;17.17;10.13;;;;;;;23.56;68.91;100698.05;1715765;83;21082;-61
2023/08/20 00:08:11;;;;;;;15.28;9.60;;;;;;;23.56;68.85;100696.64;1731356;83;21070;-61
2023/08/20 00:10:40;;;;;;;15.75;9.05;;;;;;;23.55;69.01;100698.32;1731143;83;21098;-61
2023/08/20 00:13:09;;;;;;;14.13;8.90;;;;;;;23.54;69.12;100699.41;1731184;83;21478;-61
2023/08/20 00:15:39;;;;;;;15.25;9.83;;;;;;;23.52;69.07;100699.68;1731306;83;21026;-65
2023/08/20 00:18:08;;;;;;;18.00;9.38;;;;;;;23.47;69.14;100695.47;1731287;83;21081;-61
2023/08/20 00:20:40;;;;;;;14.47;8.78;;;;;;;23.44;69.31;100700.22;1731560;83;21500;-61
2023/08/20 00:23:10;;;;;;;13.75;9.35;;;;;;;23.42;69.44;100696.02;1731333;83;21551;-61
2023/08/20 00:25:40;;;;;;;18.35;10.03;;;;;;;23.37;69.61;100698.21;1731538;83;21050;-60
2023/08/20 00:28:11;;;;;;;15.95;9.80;;;;;;;23.33;69.82;100692.89;1731466;83;21056;-62
2023/08/20 00:30:40;;;;;;;16.87;9.60;;;;;;;23.29;70.09;100687.56;1731516;83;21045;-63
2023/08/20 00:33:10;;;;;;;15.45;9.90;;;;;;;23.30;70.28;100687.84;1731453;83;21151;-61
2023/08/20 00:35:39;;;;;;;17.75;9.08;;;;;;;23.29;70.26;100686.16;1731541;83;21053;-61
2023/08/20 00:38:08;;;;;;;17.27;9.73;;;;;;;23.29;70.29;100683.37;1731299;83;21070;-61
2023/08/20 00:40:37;;;;;;;15.83;9.70;;;;;;;23.31;70.34;100685.33;1731544;83;21073;-60
2023/08/20 00:43:06;;;;;;;13.38;9.35;;;;;;;23.32;70.45;100687.02;1731390;83;21069;-61
2023/08/20 00:45:36;;;;;;;17.50;10.30;;;;;;;23.32;70.45;100688.41;1731569;83;21454;-61
2023/08/20 00:48:06;;;;;;;17.45;10.20;;;;;;;23.30;70.51;100685.89;1731541;83;21089;-61
2023/08/20 00:50:35;;;;;;;16.90;10.43;;;;;;;23.28;70.58;100689.52;1731404;83;21125;-61
2023/08/20 00:53:04;;;;;;;17.82;9.78;;;;;;;23.26;70.65;100688.95;1731528;83;21097;-61
2023/08/20 00:55:33;;;;;;;15.70;9.80;;;;;;;23.24;70.71;100688.94;1731319;83;21478;-61
2023/08/20 00:58:03;;;;;;;15.40;9.38;;;;;;;23.20;70.79;100686.41;1731468;83;21062;-65
2023/08/20 01:00:32;;;;;;;16.30;9.00;;;;;;;23.18;70.98;100691.44;1731492;83;21106;-62
2023/08/20 01:03:01;;;;;;;17.02;8.83;;;;;;;23.16;71.02;100678.30;1731526;83;21118;-60
2023/08/20 01:05:34;;;;;;;14.23;8.78;;;;;;;23.16;71.11;100686.68;1725892;83;21137;-62
2023/08/20 01:08:19;;;;;;;18.90;9.05;;;;;;;23.14;71.17;100681.92;1716487;83;21058;-61
2023/08/20 01:11:00;;;;;;;14.65;9.38;;;;;;;23.12;71.25;100678.56;1716523;83;21094;-61
2023/08/20 01:13:29;;;;;;;11.90;8.98;;;;;;;23.10;71.31;100677.44;1716450;83;21074;-61
2023/08/20 01:15:59;;;;;;;15.35;9.08;;;;;;;23.09;71.42;100676.59;1716343;83;21109;-60
2023/08/20 01:18:28;;;;;;;13.80;8.50;;;;;;;23.08;71.54;100668.48;1716546;83;21078;-61
2023/08/20 01:21:01;;;;;;;14.83;8.50;;;;;;;23.07;71.57;100666.80;1716403;83;21561;-61
2023/08/20 01:23:52;;;;;;;13.53;8.43;;;;;;;23.02;71.62;100667.63;1716374;83;21030;-61
2023/08/20 01:26:51;;;;;;;16.02;8.40;;;;;;;22.98;71.72;100676.27;1716330;83;21113;-61
2023/08/20 01:29:20;;;;;;;16.07;9.45;;;;;;;22.96;71.89;100678.50;1716029;83;21090;-61
2023/08/20 01:31:49;;;;;;;14.20;9.93;;;;;;;22.95;72.04;100679.61;1716415;83;21010;-61
2023/08/20 01:34:20;;;;;;;15.08;8.73;;;;;;;22.95;72.15;100671.23;1716384;83;21094;-61
2023/08/20 01:36:50;;;;;;;14.03;8.38;;;;;;;22.93;72.20;100674.02;1716485;83;21038;-61
2023/08/20 01:39:19;;;;;;;13.78;9.40;;;;;;;22.91;72.36;100668.70;1716518;83;21047;-61
2023/08/20 01:41:49;;;;;;;13.08;8.90;;;;;;;22.91;72.33;100672.89;1716599;83;21479;-62
2023/08/20 01:44:18;;;;;;;13.95;9.25;;;;;;;22.88;72.40;100666.45;1716629;83;21050;-61
2023/08/20 01:46:48;;;;;;;16.67;9.73;;;;;;;22.86;72.50;100667.28;1716455;83;21046;-60
2023/08/20 01:49:18;;;;;;;16.00;9.38;;;;;;;22.85;72.61;100669.79;1716458;83;21094;-61
2023/08/20 01:51:47;;;;;;;16.65;9.65;;;;;;;22.82;72.67;100668.09;1716583;83;21085;-61
2023/08/20 01:54:17;;;;;;;14.20;9.10;;;;;;;22.82;72.78;100665.30;1716381;83;21038;-63
2023/08/20 01:56:46;;;;;;;13.93;8.58;;;;;;;22.80;72.88;100668.89;1716316;83;21078;-62
2023/08/20 01:59:16;;;;;;;13.28;9.15;;;;;;;22.77;72.98;100672.52;1716535;83;21054;-61
2023/08/20 02:01:45;;;;;;;12.33;8.43;;;;;;;22.74;73.08;100668.00;1716402;83;21031;-60
2023/08/20 02:04:15;;;;;;;14.80;9.00;;;;;;;22.73;73.23;100671.91;1716557;83;21062;-61
2023/08/20 02:06:45;;;;;;;13.25;8.85;;;;;;;22.72;73.43;100675.81;1717594;83;21071;-61
2023/08/20 02:09:16;;;;;;;16.20;12.25;;;;;;;22.71;73.64;100669.94;1718330;83;21023;-60
2023/08/20 02:11:45;;;;;;;12.90;10.18;;;;;;;22.71;73.68;100676.92;1718196;83;21110;-60
2023/08/20 02:14:14;;;;;;;14.35;9.43;;;;;;;22.69;73.72;100680.54;1718331;83;21473;-61
2023/08/20 02:16:45;;;;;;;12.88;9.23;;;;;;;22.69;73.75;100683.34;1718491;83;21039;-60
2023/08/20 02:19:15;;;;;;;15.03;8.55;;;;;;;22.69;73.81;100679.98;1718305;83;21034;-60
2023/08/20 02:21:46;;;;;;;13.22;8.85;;;;;;;22.70;73.83;100682.22;1718433;83;21037;-60
2023/08/20 02:24:17;;;;;;;12.63;9.00;;;;;;;22.70;73.88;100676.63;1718307;83;21039;-61
2023/08/20 02:26:46;;;;;;;13.15;8.83;;;;;;;22.70;73.91;100686.41;1718207;83;21082;-61
2023/08/20 02:29:15;;;;;;;14.65;8.58;;;;;;;22.69;73.83;100687.52;1718176;83;21044;-61
2023/08/20 02:31:45;;;;;;;12.28;8.43;;;;;;;22.67;73.77;100686.95;1718199;83;21074;-60
2023/08/20 02:34:14;;;;;;;16.25;9.05;;;;;;;22.67;73.78;100682.77;1718210;83;21034;-60
2023/08/20 02:36:43;;;;;;;15.55;8.60;;;;;;;22.67;73.69;100684.16;1718316;83;21027;-61
2023/08/20 02:39:13;;;;;;;18.45;8.75;;;;;;;22.65;73.70;100682.20;1718322;83;21071;-61
2023/08/20 02:41:43;;;;;;;19.07;9.05;;;;;;;22.60;73.74;100683.01;1718210;83;21446;-60
2023/08/20 02:44:12;;;;;;;18.70;9.15;;;;;;;22.54;73.89;100684.64;1718334;83;21046;-62
2023/08/20 02:46:40;;;;;;;19.27;8.65;;;;;;;22.52;74.09;100678.48;1718424;83;21039;-61
2023/08/20 02:49:09;;;;;;;14.40;8.88;;;;;;;22.54;74.16;100681.85;1718143;83;21090;-60
2023/08/20 02:51:38;;;;;;;13.78;9.10;;;;;;;22.54;74.23;100679.90;1718436;83;21082;-61
2023/08/20 02:54:08;;;;;;;15.58;8.30;;;;;;;22.55;74.38;100681.58;1718028;83;21528;-61
2023/08/20 02:56:37;;;;;;;15.48;8.85;;;;;;;22.56;74.27;100683.81;1718148;83;21447;-61
2023/08/20 02:59:07;;;;;;;14.50;8.70;;;;;;;22.51;74.28;100685.19;1718352;83;21062;-62
2023/08/20 03:01:37;;;;;;;12.85;9.13;;;;;;;22.45;74.44;100676.77;1718141;83;21055;-61
2023/08/20 03:04:07;;;;;;;18.45;8.73;;;;;;;22.41;74.63;100674.80;1718171;83;21026;-61
2023/08/20 03:06:36;;;;;;;17.00;9.10;;;;;;;22.38;74.77;100681.76;1718264;83;21050;-61
2023/08/20 03:09:06;;;;;;;12.63;8.75;;;;;;;22.41;74.89;100677.03;1718297;83;21517;-61
2023/08/20 03:11:35;;;;;;;12.98;8.50;;;;;;;22.42;74.91;100676.47;1718142;83;21544;-60
2023/08/20 03:14:05;;;;;;;13.22;8.88;;;;;;;22.41;75.00;100685.41;1718387;83;21042;-61
2023/08/20 03:16:35;;;;;;;16.30;8.88;;;;;;;22.40;75.00;100678.14;1718183;83;21054;-61
2023/08/20 03:19:04;;;;;;;14.70;9.33;;;;;;;22.38;75.07;100682.31;1718396;83;21098;-60
2023/08/20 03:21:33;;;;;;;12.30;8.58;;;;;;;22.36;75.19;100679.78;1718321;83;21070;-61
2023/08/20 03:24:03;;;;;;;15.23;9.55;;;;;;;22.35;75.29;100682.30;1718033;83;21082;-61
2023/08/20 03:26:32;;;;;;;14.25;9.13;;;;;;;22.33;75.40;100685.91;1718085;83;21072;-61
2023/08/20 03:29:03;;;;;;;14.43;9.65;;;;;;;22.34;75.54;100682.01;1718188;83;21027;-61
2023/08/20 03:31:33;;;;;;;14.43;8.95;;;;;;;22.37;75.58;100680.63;1718192;83;21071;-61
2023/08/20 03:34:03;;;;;;;14.65;9.08;;;;;;;22.38;75.63;100676.73;1718327;83;21062;-64
2023/08/20 03:36:33;;;;;;;16.73;9.65;;;;;;;22.37;75.71;100679.23;1718141;83;21463;-61
2023/08/20 03:39:03;;;;;;;14.43;9.30;;;;;;;22.36;75.87;100674.20;1718323;83;21027;-61
2023/08/20 03:41:32;;;;;;;14.23;8.93;;;;;;;22.38;75.99;100680.36;1718277;83;21462;-61
2023/08/20 03:44:03;;;;;;;14.47;9.10;;;;;;;22.44;75.92;100676.48;1718336;83;21074;-62
2023/08/20 03:46:33;;;;;;;15.20;9.60;;;;;;;22.51;75.76;100679.05;1718087;83;21027;-61
2023/08/20 03:49:02;;;;;;;14.68;9.33;;;;;;;22.54;75.53;100681.85;1718357;83;21102;-61
2023/08/20 03:51:31;;;;;;;14.45;9.50;;;;;;;22.54;75.37;100680.45;1718371;83;21047;-62
2023/08/20 03:53:59;;;;;;;13.75;9.35;;;;;;;22.54;75.38;100676.27;1718298;83;21086;-61
2023/08/20 03:56:29;;;;;;;12.40;9.85;;;;;;;22.55;75.44;100672.36;1718449;83;21088;-61
2023/08/20 03:58:57;;;;;;;15.78;9.75;;;;;;;22.56;75.54;100674.05;1718300;83;21499;-62
2023/08/20 04:01:28;;;;;;;16.12;9.18;;;;;;;22.57;75.64;100670.14;1718551;83;21027;-60
2023/08/20 04:03:57;;;;;;;11.53;9.13;;;;;;;22.59;75.72;100671.55;1718370;83;21418;-61
2023/08/20 04:06:27;;;;;;;12.37;9.53;;;;;;;22.64;75.76;100661.80;1718579;83;21074;-60
2023/08/20 04:08:56;;;;;;;16.32;11.10;;;;;;;22.68;75.74;100662.09;1718286;83;21003;-60
2023/08/20 04:11:25;;;;;;;22.35;10.53;;;;;;;22.72;75.67;100661.84;1718222;83;21525;-61
2023/08/20 04:13:54;;;;;;;13.58;9.78;;;;;;;22.74;75.68;100660.45;1718446;83;21038;-61
2023/08/20 04:16:24;;;;;;;16.00;9.30;;;;;;;22.80;75.70;100663.30;1718128;83;21043;-62
2023/08/20 04:18:53;;;;;;;12.37;9.05;;;;;;;22.84;75.70;100654.14;1718337;83;21106;-60
2023/08/20 04:21:22;;;;;;;18.65;10.82;;;;;;;22.89;75.72;100654.16;1718307;83;21419;-61
2023/08/20 04:23:52;;;;;;;20.40;10.93;;;;;;;22.95;75.61;100650.27;1718486;83;21438;-61
2023/08/20 04:26:20;;;;;;;16.15;10.70;;;;;;;23.00;75.39;100650.29;1718381;83;21039;-60
2023/08/20 04:28:50;;;;;;;15.65;10.75;;;;;;;23.04;75.10;100641.64;1718417;83;21008;-61
2023/08/20 04:31:20;;;;;;;16.10;10.82;;;;;;;23.11;74.81;100655.91;1718184;83;21485;-61
2023/08/20 04:33:51;;;;;;;19.85;11.05;;;;;;;23.16;74.50;100653.13;1717351;83;21474;-61
2023/08/20 04:36:22;;;;;;;15.43;10.08;;;;;;;23.20;74.23;100652.86;1718128;83;21053;-61
2023/08/20 04:38:50;;;;;;;14.25;10.43;;;;;;;23.25;73.82;100652.32;1718124;83;21070;-61
2023/08/20 04:41:19;;;;;;;14.47;10.60;;;;;;;23.31;73.90;100650.37;1718272;83;21046;-62
2023/08/20 04:43:50;;;;;;;19.55;10.82;;;;;;;23.36;73.73;100644.80;1677741;83;21094;-60
2023/08/20 04:46:20;;;;;;;17.27;10.98;;;;;;;23.42;73.55;100645.12;1718206;83;21038;-61
2023/08/20 04:48:50;;;;;;;16.67;10.53;;;;;;;23.49;73.32;100644.84;1718210;83;21029;-60
2023/08/20 04:51:21;;;;;;;18.23;10.68;;;;;;;23.56;73.22;100646.29;1718359;83;21089;-61
2023/08/20 04:53:50;;;;;;;14.47;10.75;;;;;;;23.62;72.98;100647.98;1718419;83;21062;-62
2023/08/20 04:56:20;;;;;;;18.20;11.60;;;;;;;23.70;72.85;100653.02;1718361;83;21075;-62
2023/08/20 04:58:49;;;;;;;20.10;11.88;;;;;;;23.77;72.50;100649.94;1718370;83;21047;-62
2023/08/20 05:01:20;;;;;;;18.17;12.15;;;;;;;23.85;72.06;100646.58;1714033;83;21530;-61
2023/08/20 05:03:49;;;;;;;17.60;12.13;;;;;;;23.93;71.56;100649.38;1718412;83;21038;-61
2023/08/20 05:06:18;;;;;;;20.05;12.95;;;;;;;24.01;71.23;100651.62;1718187;83;21026;-62
2023/08/20 05:08:47;;;;;;;17.10;12.70;;;;;;;24.11;70.99;100653.05;1718281;83;21047;-61
2023/08/20 05:11:17;;;;;;;18.10;12.50;;;;;;;24.19;70.74;100649.67;1718378;83;21042;-62
2023/08/20 05:13:49;;;;;;;17.85;12.30;;;;;;;24.27;70.48;100653.33;1718136;83;21062;-63
2023/08/20 05:16:18;;;;;;;16.12;11.20;;;;;;;24.34;70.24;100655.28;1718079;83;21528;-63
2023/08/20 05:18:48;;;;;;;17.10;11.70;;;;;;;24.44;69.91;100643.77;1718566;83;21074;-61
2023/08/20 05:21:16;;;;;;;16.48;10.98;;;;;;;24.53;69.54;100644.30;1718388;83;21054;-61
2023/08/20 05:23:46;;;;;;;15.90;9.95;;;;;;;24.63;68.87;100643.44;1718358;83;21014;-61
2023/08/20 05:26:15;;;;;;;18.50;11.55;;;;;;;24.70;68.39;100636.97;1718062;83;21098;-62
2023/08/20 05:28:44;;;;;;;16.60;10.48;;;;;;;24.81;68.05;100647.05;1718365;83;21158;-61
2023/08/20 05:31:14;;;;;;;16.42;11.12;;;;;;;24.88;67.71;100644.77;1718182;83;21547;-61
2023/08/20 05:33:44;;;;;;;15.25;11.30;;;;;;;24.96;67.18;100646.14;1718180;83;21071;-61
2023/08/20 05:36:15;;;;;;;16.97;11.53;;;;;;;25.04;66.55;100641.93;1718327;83;21003;-61
2023/08/20 05:38:44;;;;;;;14.90;10.08;;;;;;;25.11;66.06;100642.45;1718452;83;21035;-61
2023/08/20 05:41:13;;;;;;;14.98;10.80;;;;;;;25.18;65.88;100638.77;1718217;83;21108;-61
2023/08/20 05:43:44;;;;;;;15.78;10.38;;;;;;;25.25;65.63;100629.47;1718184;83;21093;-61
2023/08/20 05:46:15;;;;;;;11.97;9.70;;;;;;;25.32;65.43;100632.80;1718323;83;21621;-61
2023/08/20 05:48:45;;;;;;;15.65;9.78;;;;;;;25.39;65.23;100631.09;1718198;83;21043;-61
2023/08/20 05:51:15;;;;;;;14.25;9.00;;;;;;;25.45;64.99;100624.33;1718425;83;21062;-60
2023/08/20 05:53:46;;;;;;;12.93;9.28;;;;;;;25.52;64.51;100622.87;1718097;83;21026;-62
2023/08/20 05:56:15;;;;;;;12.78;8.10;;;;;;;25.59;64.07;100621.97;1718255;83;21136;-62
2023/08/20 05:58:44;;;;;;;16.23;8.83;;;;;;;25.67;63.59;100620.54;1718335;83;21034;-61
2023/08/20 06:01:14;;;;;;;10.68;8.13;;;;;;;25.74;63.01;100614.59;1718184;83;21043;-60
2023/08/20 06:03:46;;;;;;;9.80;8.20;;;;;;;25.81;62.39;100624.35;1718171;83;21035;-60
2023/08/20 06:06:16;;;;;;;15.80;8.05;;;;;;;25.89;62.07;100625.12;1718152;83;21562;-63
2023/08/20 06:08:46;;;;;;;11.65;7.62;;;;;;;25.97;61.69;100627.02;1717313;83;21078;-61
2023/08/20 06:11:19;;;;;;;11.93;7.92;;;;;;;26.03;61.25;100630.92;1714865;83;21046;-62
2023/08/20 06:13:50;;;;;;;12.95;7.55;;;;;;;26.10;60.99;100626.38;1718100;83;21089;-60
2023/08/20 06:16:20;;;;;;;13.28;7.58;;;;;;;26.15;60.34;100628.56;1717992;83;21194;-61
2023/08/20 06:18:49;;;;;;;12.25;7.10;;;;;;;26.23;59.77;100622.87;1718083;83;21047;-61
2023/08/20 06:21:19;;;;;;;13.48;7.40;;;;;;;26.29;59.00;100625.89;1718104;83;21034;-62
2023/08/20 06:23:49;;;;;;;12.13;7.22;;;;;;;26.36;58.62;100626.98;1718142;83;21043;-61
2023/08/20 06:26:18;;;;;;;14.35;7.42;;;;;;;26.42;58.46;100628.03;1718231;83;21035;-62
2023/08/20 06:28:48;;;;;;;11.78;7.45;;;;;;;26.49;58.28;100631.89;1718087;83;21477;-62
2023/08/20 06:31:18;;;;;;;14.68;7.33;;;;;;;26.55;58.19;100627.89;1718408;83;21050;-62
2023/08/20 06:33:48;;;;;;;8.28;6.83;;;;;;;26.61;58.02;100622.47;1718329;83;21047;-61
2023/08/20 06:36:18;;;;;;;10.78;8.00;;;;;;;26.67;58.15;100621.31;1718359;83;21035;-62
2023/08/20 06:38:49;;;;;;;11.75;7.90;;;;;;;26.81;57.97;100622.83;1718357;83;21043;-62
2023/08/20 06:41:19;;;;;;;13.62;7.58;;;;;;;27.07;57.42;100615.75;1718155;83;21114;-61
2023/08/20 06:43:49;;;;;;;12.03;8.40;;;;;;;27.45;56.58;100620.85;1718165;83;21486;-62
2023/08/20 06:46:18;;;;;;;12.85;8.85;;;;;;;27.91;55.60;100613.09;1718117;83;21078;-62
2023/08/20 06:48:48;;;;;;;12.53;8.20;;;;;;;28.43;54.22;100615.29;1718360;83;21462;-62
2023/08/20 06:51:22;;;;;;;13.68;7.62;;;;;;;28.92;52.82;100615.19;1718266;83;21066;-61
2023/08/20 06:53:51;;;;;;;10.05;6.87;;;;;;;29.42;51.23;100606.17;1678823;83;21035;-62
2023/08/20 06:56:21;;;;;;;8.80;6.17;;;;;;;29.93;49.48;100615.69;1718284;83;21106;-60
2023/08/20 06:58:51;;;;;;;9.00;5.97;;;;;;;30.45;47.48;100615.17;1718293;83;21539;-61
2023/08/20 07:01:21;;;;;;;10.98;6.40;;;;;;;30.94;45.74;100609.83;1678002;83;21094;-62
2023/08/20 07:03:52;;;;;;;14.38;6.42;;;;;;;31.37;44.42;100613.37;1701117;83;21027;-62
2023/08/20 07:06:23;;;;;;;8.40;5.87;;;;;;;31.71;44.01;100616.23;1718269;83;21090;-62
2023/08/20 07:08:53;;;;;;;8.70;5.33;;;;;;;32.06;43.25;100611.38;1716622;83;21098;-62
2023/08/20 07:11:23;;;;;;;10.53;5.17;;;;;;;32.43;42.48;100618.89;1716506;83;21011;-63
2023/08/20 07:13:53;;;;;;;8.83;5.90;;;;;;;32.81;41.58;100619.53;1716325;83;21055;-62
2023/08/20 07:16:23;;;;;;;7.12;4.83;;;;;;;33.14;39.88;100612.57;1716506;83;21930;-63
2023/08/20 07:18:53;;;;;;;9.58;5.55;;;;;;;33.32;39.32;100612.76;1716357;83;21045;-62
2023/08/20 07:21:23;;;;;;;8.95;5.30;;;;;;;33.57;38.78;100610.30;1716269;83;21043;-62
2023/08/20 07:23:54;;;;;;;9.43;5.55;;;;;;;33.80;37.44;100603.64;1716331;83;21097;-61
2023/08/20 07:26:23;;;;;;;10.10;5.58;;;;;;;33.92;37.15;100611.45;1716302;83;21102;-62
2023/08/20 07:28:59;;;;;;;6.28;5.25;;;;;;;34.06;36.88;100610.55;1716399;83;21059;-62
2023/08/20 07:31:31;;;;;;;8.53;5.87;;;;;;;34.18;36.80;100603.47;1716757;83;21095;-61
2023/08/20 07:34:04;;;;;;;8.28;5.17;;;;;;;34.44;36.37;100614.58;1716424;83;21071;-61
2023/08/20 07:36:35;;;;;;;8.55;5.33;;;;;;;34.65;35.73;100604.55;1716347;83;21080;-61
2023/08/20 07:39:05;;;;;;;8.65;4.87;;;;;;;34.78;35.17;100604.79;1690437;83;21047;-62
2023/08/20 07:41:35;;;;;;;9.53;6.67;;;;;;;34.77;34.86;100599.45;1716499;83;21079;-64
2023/08/20 07:44:05;;;;;;;13.60;6.00;;;;;;;34.90;35.06;100606.83;1716444;83;21031;-63
2023/08/20 07:46:34;;;;;;;8.80;5.55;;;;;;;35.06;34.21;100603.50;1716299;83;21062;-62
2023/08/20 07:49:03;;;;;;;9.20;5.58;;;;;;;35.16;34.07;100603.63;1716249;83;21066;-62
2023/08/20 07:51:34;;;;;;;8.73;5.50;;;;;;;35.33;33.60;100609.68;1716282;83;21494;-61
2023/08/20 07:54:04;;;;;;;6.87;4.45;;;;;;;35.52;33.09;100607.02;1716560;83;21070;-61
2023/08/20 07:56:33;;;;;;;9.83;5.65;;;;;;;35.58;32.14;100603.55;1716628;83;21038;-63
2023/08/20 07:59:03;;;;;;;8.98;5.72;;;;;;;35.51;33.28;100596.80;1716349;83;21540;-61
2023/08/20 08:01:32;;;;;;;12.05;5.40;;;;;;;35.60;33.39;100597.48;1716252;83;21651;-62
2023/08/20 08:04:04;;;;;;;9.85;5.53;;;;;;;35.80;32.65;100600.76;1716451;83;21447;-61
2023/08/20 08:06:34;;;;;;;8.23;4.53;;;;;;;35.95;31.76;100599.77;1737011;82;21027;-64
2023/08/20 08:09:32;;;;;;;9.15;5.42;;;;;;;36.01;31.21;100594.03;1748418;81;21116;-60
2023/08/20 08:12:02;;;;;;;9.35;5.30;;;;;;;36.05;31.44;100598.64;1726903;81;21021;-63
2023/08/20 08:14:30;;;;;;;8.05;4.62;;;;;;;36.21;31.50;100595.22;1741744;82;21084;-63
2023/08/20 08:17:00;;;;;;;10.80;4.47;;;;;;;36.41;30.67;100585.37;1744545;81;21104;-62
2023/08/20 08:19:29;;;;;;;7.78;4.60;;;;;;;36.44;30.50;100592.63;1758132;81;21022;-64
2023/08/20 08:21:58;;;;;;;7.15;4.28;;;;;;;36.46;30.55;100590.83;1758339;81;21510;-65
2023/08/20 08:24:28;;;;;;;8.48;4.87;;;;;;;36.49;30.41;100587.23;1757792;81;21045;-64
2023/08/20 08:26:57;;;;;;;5.22;4.58;;;;;;;36.42;30.33;100586.45;1749741;81;21061;-64
2023/08/20 08:29:27;;;;;;;8.75;5.45;;;;;;;36.33;30.57;100586.37;1744126;82;21044;-64
2023/08/20 08:31:58;;;;;;;7.83;5.10;;;;;;;36.44;30.30;100581.81;1744039;82;21041;-63
2023/08/20 08:34:38;;;;;;;8.23;5.08;;;;;;;36.56;30.07;100581.71;1744072;82;21032;-64
2023/08/20 08:37:19;;;;;;;6.17;4.60;;;;;;;36.55;30.03;100580.66;1744111;82;21096;-64
2023/08/20 08:39:49;;;;;;;8.93;5.50;;;;;;;36.39;29.87;100577.77;1744264;82;21491;-63
2023/08/20 08:42:19;;;;;;;6.62;4.60;;;;;;;36.18;30.01;100571.70;1744325;82;21060;-63
2023/08/20 08:44:48;;;;;;;8.10;5.00;;;;;;;35.99;30.20;100575.03;1712424;81;21038;-63
2023/08/20 08:47:19;;;;;;;9.00;4.55;;;;;;;35.89;30.41;100575.80;1758153;81;21049;-63
2023/08/20 08:49:49;;;;;;;7.00;4.37;;;;;;;35.86;30.35;100567.13;1758216;81;21477;-63
2023/08/20 08:52:18;;;;;;;9.80;5.20;;;;;;;35.89;30.03;100568.66;1737241;81;21061;-62
2023/08/20 08:54:48;;;;;;;6.92;4.90;;;;;;;35.92;30.11;100571.98;1757967;81;21041;-64
2023/08/20 08:57:19;;;;;;;7.72;4.47;;;;;;;35.91;29.84;100571.75;1758240;80;21081;-64
2023/08/20 08:59:48;;;;;;;6.25;4.40;;;;;;;36.04;29.77;100572.73;1758047;81;21112;-63
2023/08/20 09:02:18;;;;;;;5.53;4.45;;;;;;;36.26;29.40;100567.61;1758087;81;21492;-62
2023/08/20 09:04:47;;;;;;;10.63;4.90;;;;;;;36.47;29.18;100571.91;1737546;81;21499;-64
2023/08/20 09:07:18;;;;;;;8.45;4.60;;;;;;;36.56;28.72;100574.58;1758013;81;21009;-62
2023/08/20 09:09:49;;;;;;;7.28;4.87;;;;;;;36.52;28.78;100575.08;1782354;80;21052;-63
2023/08/20 09:12:20;;;;;;;7.37;4.67;;;;;;;36.35;28.66;100578.27;1784860;80;21189;-64
2023/08/20 09:14:51;;;;;;;7.72;4.50;;;;;;;36.02;28.95;100578.58;1785021;80;21068;-64
2023/08/20 09:17:21;;;;;;;9.28;4.70;;;;;;;35.73;29.19;100574.03;1748046;82;21084;-63
2023/08/20 09:19:51;;;;;;;6.80;4.50;;;;;;;35.60;29.14;100574.67;1750266;82;21111;-63
2023/08/20 09:22:20;;;;;;;7.25;4.70;;;;;;;35.42;29.21;100575.58;1750287;82;21465;-62
2023/08/20 09:24:55;;;;;;;8.63;4.62;;;;;;;35.15;29.58;100570.63;1750132;82;21433;-68
2023/08/20 09:27:25;;;;;;;9.13;4.80;;;;;;;34.91;30.21;100570.88;1750618;82;21475;-63
2023/08/20 09:29:55;;;;;;;5.20;4.37;;;;;;;34.80;30.52;100573.11;1750568;82;21032;-61
2023/08/20 09:32:28;;;;;;;7.70;4.58;;;;;;;34.77;30.58;100563.27;1750409;82;22120;-61
2023/08/20 09:34:58;;;;;;;5.65;4.22;;;;;;;34.77;30.30;100561.02;1750447;82;21048;-62
2023/08/20 09:37:28;;;;;;;6.72;4.40;;;;;;;34.71;30.42;100551.89;1750231;81;21104;-62
2023/08/20 09:39:57;;;;;;;7.15;4.25;;;;;;;34.68;30.60;100552.59;1750599;82;21029;-62
2023/08/20 09:42:28;;;;;;;9.38;4.80;;;;;;;34.57;29.42;100544.30;1750590;81;21092;-61
2023/08/20 09:44:57;;;;;;;5.60;4.28;;;;;;;34.29;29.85;100554.89;1750408;82;21089;-62
2023/08/20 09:47:27;;;;;;;6.83;4.53;;;;;;;34.01;30.75;100553.90;1750397;82;21004;-60
2023/08/20 09:49:56;;;;;;;8.55;5.87;;;;;;;33.85;31.25;100550.06;1745335;82;21496;-61
2023/08/20 09:52:29;;;;;;;5.97;4.85;;;;;;;33.73;31.51;100558.73;1750456;82;21468;-61
2023/08/20 09:55:11;;;;;;;7.72;4.72;;;;;;;33.67;32.06;100549.35;1750438;82;21044;-61
2023/08/20 09:57:41;;;;;;;9.58;5.00;;;;;;;33.57;31.91;100553.45;1750487;82;21112;-61
2023/08/20 10:00:14;;;;;;;8.05;5.00;;;;;;;33.47;31.86;100538.84;1750330;80;21037;-61
2023/08/20 10:02:43;;;;;;;5.05;4.55;;;;;;;33.42;32.08;100544.16;1750587;82;21049;-61
2023/08/20 10:05:14;;;;;;;6.20;4.33;;;;;;;33.39;31.91;100538.58;1750181;81;21489;-61
2023/08/20 10:07:44;;;;;;;7.10;4.35;;;;;;;33.37;31.20;100539.52;1750573;81;21040;-62
2023/08/20 10:10:13;;;;;;;6.15;4.08;;;;;;;33.36;30.97;100534.19;1737194;82;21469;-61
2023/08/20 10:12:43;;;;;;;6.25;4.85;;;;;;;33.36;30.67;100528.50;1747089;82;21029;-62
2023/08/20 10:15:14;;;;;;;9.83;3.87;;;;;;;33.36;30.72;100525.66;1736543;82;21089;-61
2023/08/20 10:17:45;;;;;;;6.42;3.98;;;;;;;33.41;30.64;100532.55;1736760;82;21101;-64
2023/08/20 10:20:16;;;;;;;7.00;4.67;;;;;;;33.45;29.79;100530.67;1703809;84;21017;-63
2023/08/20 10:22:46;;;;;;;4.75;4.15;;;;;;;33.40;30.08;100530.30;1703735;84;21061;-65
2023/08/20 10:25:24;;;;;;;9.28;4.72;;;;;;;33.44;29.81;100529.60;1703797;84;21065;-64
2023/08/20 10:27:55;;;;;;;6.78;4.55;;;;;;;33.42;30.18;100522.02;1704013;84;21044;-64
2023/08/20 10:30:25;;;;;;;7.03;4.53;;;;;;;33.39;30.28;100513.02;1705263;84;21156;-64
2023/08/20 10:32:58;;;;;;;8.48;4.58;;;;;;;33.41;30.15;100518.34;1696662;84;21073;-63
2023/08/20 10:35:40;;;;;;;4.78;4.15;;;;;;;33.38;29.84;100516.20;1765229;81;21050;-65
2023/08/20 10:38:16;;;;;;;5.08;4.60;;;;;;;33.33;30.14;100512.16;1767844;81;21016;-64
2023/08/20 10:40:57;;;;;;;7.12;4.40;;;;;;;33.27;30.51;100510.67;1768592;81;21012;-65
2023/08/20 10:43:39;;;;;;;6.03;4.25;;;;;;;33.23;30.82;100509.70;1768438;81;21076;-65
2023/08/20 10:46:18;;;;;;;6.58;4.42;;;;;;;33.21;30.76;100507.22;1749779;81;21322;-63
2023/08/20 10:48:52;;;;;;;6.15;4.22;;;;;;;33.18;30.76;100498.56;1768590;80;21027;-64
2023/08/20 10:51:36;;;;;;;7.75;4.70;;;;;;;33.17;30.96;100496.30;1768412;81;21063;-62
2023/08/20 10:54:07;;;;;;;8.35;4.87;;;;;;;33.24;30.83;100500.00;1768265;81;21028;-62
2023/08/20 10:56:56;;;;;;;4.95;4.25;;;;;;;33.33;30.59;100494.52;1768234;81;21440;-65
2023/08/20 10:59:30;;;;;;;6.47;4.28;;;;;;;33.36;30.52;100491.57;1749141;81;21087;-63
2023/08/20 11:02:00;;;;;;;6.70;4.42;;;;;;;33.44;30.40;100487.81;1768533;81;21055;-62
2023/08/20 11:04:34;;;;;;;5.75;4.28;;;;;;;33.52;30.33;100484.05;1768389;81;21048;-63
2023/08/20 11:07:04;;;;;;;8.60;4.33;;;;;;;33.58;29.75;100485.49;1768214;81;21019;-64
2023/08/20 11:09:34;;;;;;;6.30;4.87;;;;;;;33.55;29.86;100481.94;1768272;81;21073;-64
2023/08/20 11:12:04;;;;;;;9.05;5.20;;;;;;;33.56;31.15;100478.50;1768465;81;21020;-63
2023/08/20 11:14:33;;;;;;;7.85;5.35;;;;;;;33.60;31.90;100473.19;1768318;81;21466;-63
2023/08/20 11:17:03;;;;;;;7.97;4.92;;;;;;;33.63;32.04;100471.66;1749372;81;21058;-64
2023/08/20 11:19:32;;;;;;;11.78;5.35;;;;;;;33.62;32.27;100467.15;1776877;81;20993;-64
2023/08/20 11:22:01;;;;;;;7.97;5.53;;;;;;;33.61;32.35;100468.33;1777078;81;21476;-64
2023/08/20 11:24:31;;;;;;;6.55;5.00;;;;;;;33.59;32.27;100469.27;1777133;81;21131;-63
2023/08/20 11:27:00;;;;;;;6.95;5.08;;;;;;;33.52;32.21;100465.59;1777087;81;21471;-63
2023/08/20 11:29:31;;;;;;;8.13;5.10;;;;;;;33.43;32.23;100456.91;1776958;81;21056;-64
2023/08/20 11:32:02;;;;;;;6.92;5.80;;;;;;;33.35;32.54;100453.81;1777136;80;21060;-64
2023/08/20 11:34:32;;;;;;;7.60;5.20;;;;;;;33.34;32.84;100449.31;1777286;81;21468;-64